Time;durP1;ratioP1;P1;durP2;ratioP2;P2;SDS_P1;SDS_P2;PMS_P1;PMS_P2;Temp;Humidity;BMP_temperature;BMP_pressure;BME280_temperature;BME280_humidity;BME280_pressure;Samples;Min_cycle;Max_cycle;Signal;HPM_P1;HPM_P2
2023/07/01 00:01:35;;;;;;;6.93;1.67;;;18.40;99.90;;;;;;5047569;28;20983;-69
2023/07/01 00:04:00;;;;;;;6.40;1.40;;;18.40;99.90;;;;;;5045666;28;20487;-69
2023/07/01 00:06:27;;;;;;;4.88;1.40;;;18.40;99.90;;;;;;5045229;28;20417;-69
2023/07/01 00:08:54;;;;;;;5.70;1.30;;;18.40;99.90;;;;;;5044863;28;21148;-69
2023/07/01 00:11:20;;;;;;;5.85;1.45;;;18.40;99.90;;;;;;5051164;28;20419;-69
2023/07/01 00:13:46;;;;;;;6.25;1.48;;;18.40;99.90;;;;;;5049821;28;20487;-69
2023/07/01 00:16:13;;;;;;;7.00;1.40;;;18.40;99.90;;;;;;5029858;28;20508;-69
2023/07/01 00:18:40;;;;;;;6.13;1.60;;;18.40;99.90;;;;;;5042329;28;20786;-69
2023/07/01 00:21:07;;;;;;;5.25;1.55;;;18.40;99.90;;;;;;5064548;28;20405;-69
2023/07/01 00:23:33;;;;;;;6.70;1.30;;;18.40;99.90;;;;;;5060945;28;20408;-69
2023/07/01 00:25:58;;;;;;;7.85;1.75;;;18.30;99.90;;;;;;5043380;28;20409;-69
2023/07/01 00:28:24;;;;;;;5.23;1.10;;;18.30;99.90;;;;;;5047862;28;20397;-69
2023/07/01 00:30:49;;;;;;;4.38;1.30;;;18.30;99.90;;;;;;5026057;28;20409;-69
2023/07/01 00:33:15;;;;;;;6.63;1.63;;;18.30;99.90;;;;;;5055202;28;20408;-69
2023/07/01 00:35:41;;;;;;;4.63;1.60;;;18.40;99.90;;;;;;5034645;28;20952;-68
2023/07/01 00:38:06;;;;;;;5.70;1.40;;;18.30;99.90;;;;;;5068732;28;20462;-69
2023/07/01 00:40:32;;;;;;;7.77;1.60;;;18.40;99.90;;;;;;5046884;28;20451;-69
2023/07/01 00:42:57;;;;;;;5.47;1.45;;;18.30;99.90;;;;;;5044487;28;20412;-69
2023/07/01 00:45:23;;;;;;;4.93;1.30;;;18.30;99.90;;;;;;5057848;28;20418;-69
2023/07/01 00:47:49;;;;;;;6.30;1.33;;;18.40;99.90;;;;;;5047762;28;20406;-69
2023/07/01 00:50:15;;;;;;;4.50;1.23;;;18.30;99.90;;;;;;5046753;28;20404;-69
2023/07/01 00:52:42;;;;;;;5.10;1.40;;;18.30;99.90;;;;;;5047493;28;20429;-69
2023/07/01 00:55:09;;;;;;;7.40;1.60;;;18.40;99.90;;;;;;5058497;28;20431;-69
2023/07/01 00:57:35;;;;;;;9.30;1.70;;;18.40;99.90;;;;;;5046574;28;20538;-69
2023/07/01 01:00:14;;;;;;;6.82;1.25;;;18.40;99.90;;;;;;5045835;28;20410;-69
2023/07/01 01:02:45;;;;;;;6.93;1.60;;;18.30;99.90;;;;;;5048172;28;20546;-69
2023/07/01 01:05:18;;;;;;;5.13;1.30;;;18.30;99.90;;;;;;5068204;28;21057;-69
2023/07/01 01:07:51;;;;;;;5.72;1.20;;;18.30;99.90;;;;;;5023842;28;20430;-69
2023/07/01 01:10:25;;;;;;;6.50;1.23;;;18.30;99.90;;;;;;5037524;28;20542;-69
2023/07/01 01:12:57;;;;;;;5.97;1.60;;;18.30;99.90;;;;;;5042191;28;20411;-69
2023/07/01 01:15:25;;;;;;;5.65;1.40;;;18.30;99.90;;;;;;5049619;28;20432;-69
2023/07/01 01:17:55;;;;;;;5.65;1.42;;;18.20;99.90;;;;;;5042075;28;20447;-69
2023/07/01 01:20:22;;;;;;;5.97;1.30;;;18.30;99.90;;;;;;5062035;28;20427;-69
2023/07/01 01:23:03;;;;;;;7.60;1.35;;;18.30;99.90;;;;;;5037817;28;20413;-69
2023/07/01 01:25:35;;;;;;;8.73;1.40;;;18.30;99.90;;;;;;5036044;28;20417;-69
2023/07/01 01:28:01;;;;;;;4.90;1.50;;;18.20;99.90;;;;;;5029893;28;20503;-69
2023/07/01 01:30:31;;;;;;;6.30;1.30;;;18.30;99.90;;;;;;5039822;28;20459;-69
2023/07/01 01:32:57;;;;;;;7.93;1.30;;;18.30;99.90;;;;;;5063164;28;20408;-69
2023/07/01 01:35:23;;;;;;;4.57;1.23;;;18.20;99.90;;;;;;5041588;28;20962;-69
2023/07/01 01:38:18;;;;;;;5.17;1.33;;;18.20;99.90;;;;;;5033382;28;20466;-69
2023/07/01 01:40:58;;;;;;;5.93;1.33;;;18.20;99.90;;;;;;5050195;28;20415;-69
2023/07/01 01:43:44;;;;;;;5.65;1.17;;;18.20;99.90;;;;;;5034385;28;20417;-68
2023/07/01 01:46:11;;;;;;;8.20;1.77;;;18.20;99.90;;;;;;5026827;28;20424;-69
2023/07/01 01:48:38;;;;;;;6.65;1.63;;;18.20;99.90;;;;;;5058646;28;20532;-69
2023/07/01 01:51:04;;;;;;;6.28;1.50;;;18.20;99.90;;;;;;5048975;28;20593;-69
2023/07/01 01:53:31;;;;;;;8.70;1.53;;;18.20;99.90;;;;;;5032290;28;20412;-69
2023/07/01 01:55:58;;;;;;;8.75;1.73;;;18.20;99.90;;;;;;5066641;28;20424;-69
2023/07/01 01:58:24;;;;;;;5.88;1.80;;;18.10;99.90;;;;;;5045687;28;20571;-69
2023/07/01 02:00:50;;;;;;;6.82;1.80;;;18.10;99.90;;;;;;5065245;28;20808;-69
2023/07/01 02:03:15;;;;;;;7.87;1.90;;;18.00;1.00;;;;;;5048706;28;20474;-69
2023/07/01 02:05:41;;;;;;;9.02;1.98;;;17.90;1.00;;;;;;5066552;28;20413;-69
2023/07/01 02:08:07;;;;;;;7.37;2.00;;;17.80;1.00;;;;;;5045876;28;20748;-69
2023/07/01 02:10:33;;;;;;;8.43;2.37;;;17.80;1.00;;;;;;5065614;28;20411;-69
2023/07/01 02:12:59;;;;;;;6.95;1.88;;;17.70;96.70;;;;;;5049599;28;20425;-69
2023/07/01 02:15:25;;;;;;;6.68;1.95;;;17.60;99.90;;;;;;5059222;28;20444;-69
2023/07/01 02:17:52;;;;;;;5.10;1.80;;;17.60;99.90;;;;;;5039986;28;20413;-69
2023/07/01 02:20:18;;;;;;;10.23;2.50;;;17.50;1.00;;;;;;5035744;28;20527;-69
2023/07/01 02:22:44;;;;;;;6.85;2.50;;;17.40;98.80;;;;;;5039791;28;20455;-69
2023/07/01 02:25:09;;;;;;;8.05;2.22;;;17.40;8.10;;;;;;5037926;28;20456;-69
2023/07/01 02:27:35;;;;;;;9.30;2.50;;;17.30;1.00;;;;;;5063586;28;20742;-69
2023/07/01 02:30:02;;;;;;;6.93;2.20;;;17.20;99.90;;;;;;5037790;28;20484;-69
2023/07/01 02:32:28;;;;;;;6.55;2.55;;;17.20;99.90;;;;;;5036585;28;20978;-69
2023/07/01 02:34:54;;;;;;;8.40;2.80;;;17.10;1.00;;;;;;5047033;28;20554;-69
2023/07/01 02:37:19;;;;;;;8.73;3.30;;;17.10;99.90;;;;;;5040929;28;20432;-69
2023/07/01 02:39:46;;;;;;;6.60;3.00;;;17.00;99.90;;;;;;5068388;28;20890;-69
2023/07/01 02:42:15;;;;;;;5.20;2.83;;;17.00;1.00;;;;;;5053355;28;20430;-69
2023/07/01 02:44:41;;;;;;;8.25;3.25;;;17.00;99.90;;;;;;5049796;28;20428;-69
2023/07/01 02:47:07;;;;;;;4.80;2.58;;;17.00;1.00;;;;;;5063415;28;20515;-69
2023/07/01 02:49:33;;;;;;;6.25;2.70;;;17.00;99.90;;;;;;5041068;28;20401;-69
2023/07/01 02:51:58;;;;;;;9.07;3.20;;;16.90;99.90;;;;;;5069725;28;20435;-69
2023/07/01 02:54:24;;;;;;;7.55;2.80;;;16.90;99.90;;;;;;5049232;28;20838;-69
2023/07/01 02:56:49;;;;;;;7.13;2.70;;;16.90;40.60;;;;;;5051728;28;20408;-69
2023/07/01 02:59:15;;;;;;;8.27;3.10;;;16.90;1.00;;;;;;5049853;28;20427;-69
2023/07/01 03:01:44;;;;;;;7.77;2.80;;;16.90;1.00;;;;;;5047958;28;20401;-69
2023/07/01 03:04:10;;;;;;;6.82;2.83;;;16.90;1.00;;;;;;5029041;28;20893;-69
2023/07/01 03:06:35;;;;;;;6.90;3.07;;;16.90;42.00;;;;;;5048581;28;21160;-69
2023/07/01 03:09:07;;;;;;;5.88;2.88;;;16.90;10.80;;;;;;5042711;28;20915;-69
2023/07/01 03:11:35;;;;;;;6.65;2.88;;;16.90;2.50;;;;;;5023155;28;20755;-69
2023/07/01 03:14:00;;;;;;;9.68;3.30;;;16.90;94.60;;;;;;5040242;28;20928;-69
2023/07/01 03:16:26;;;;;;;7.03;2.73;;;16.90;99.90;;;;;;5045949;28;20429;-69
2023/07/01 03:18:51;;;;;;;8.83;2.80;;;16.90;80.20;;;;;;5042390;28;20405;-69
2023/07/01 03:21:17;;;;;;;8.88;3.05;;;16.90;99.90;;;;;;5051275;28;20493;-69
2023/07/01 03:23:42;;;;;;;6.77;3.07;;;16.90;88.40;;;;;;5070609;28;20431;-69
2023/07/01 03:26:08;;;;;;;8.15;3.50;;;16.90;72.10;;;;;;5033696;28;20408;-69
2023/07/01 03:28:34;;;;;;;6.30;3.00;;;16.90;77.70;;;;;;5033054;28;20417;-69
2023/07/01 03:30:59;;;;;;;6.50;3.40;;;17.00;19.70;;;;;;5069337;28;20407;-69
2023/07/01 03:33:25;;;;;;;8.40;3.23;;;17.00;33.50;;;;;;5049579;28;20416;-69
2023/07/01 03:35:50;;;;;;;6.47;3.07;;;17.00;1.00;;;;;;5047507;28;20487;-69
2023/07/01 03:38:16;;;;;;;6.00;3.25;;;17.00;1.00;;;;;;5032670;28;20405;-69
2023/07/01 03:40:42;;;;;;;6.35;3.10;;;17.00;99.90;;;;;;5046896;28;20492;-69
2023/07/01 03:43:07;;;;;;;7.47;3.17;;;17.00;99.90;;;;;;5044780;28;20762;-69
2023/07/01 03:45:33;;;;;;;9.63;3.13;;;17.00;99.90;;;;;;5069771;28;20399;-69
2023/07/01 03:47:59;;;;;;;7.60;3.53;;;17.00;99.90;;;;;;5049069;28;20505;-69
2023/07/01 03:50:25;;;;;;;5.50;2.80;;;17.10;99.90;;;;;;5047146;28;20443;-69
2023/07/01 03:52:50;;;;;;;5.67;3.00;;;17.00;99.90;;;;;;5045500;28;20413;-69
2023/07/01 03:55:16;;;;;;;8.77;3.03;;;17.00;11.00;;;;;;5047504;28;20498;-69
2023/07/01 03:57:41;;;;;;;5.37;3.03;;;17.10;99.90;;;;;;5069072;28;20787;-69
2023/07/01 04:00:17;;;;;;;5.95;2.95;;;17.00;99.90;;;;;;5048493;28;20441;-69
2023/07/01 04:02:52;;;;;;;7.38;3.15;;;17.00;17.30;;;;;;5045641;28;20412;-69
2023/07/01 04:05:18;;;;;;;6.72;2.83;;;17.10;1.00;;;;;;5046877;28;20920;-69
2023/07/01 04:07:46;;;;;;;7.22;2.80;;;17.10;99.90;;;;;;5049662;28;20406;-69
2023/07/01 04:10:12;;;;;;;6.33;3.10;;;17.10;1.00;;;;;;5069539;28;20423;-69
2023/07/01 04:12:38;;;;;;;5.95;2.38;;;17.10;1.00;;;;;;5042488;28;20771;-69
2023/07/01 04:15:09;;;;;;;4.40;2.70;;;17.10;1.00;;;;;;5046194;28;20520;-69
2023/07/01 04:17:36;;;;;;;5.53;2.73;;;17.10;1.00;;;;;;5050384;28;20416;-69
2023/07/01 04:20:04;;;;;;;6.25;2.80;;;17.10;99.90;;;;;;5050638;28;20781;-69
2023/07/01 04:22:30;;;;;;;4.68;2.60;;;17.00;76.20;;;;;;5048769;28;20537;-69
2023/07/01 04:24:55;;;;;;;7.73;2.90;;;17.00;45.60;;;;;;5036710;28;20452;-69
2023/07/01 04:27:21;;;;;;;5.70;2.50;;;17.00;57.30;;;;;;5064449;28;20819;-69
2023/07/01 04:29:46;;;;;;;5.07;2.43;;;17.00;99.90;;;;;;5048007;28;20420;-69
2023/07/01 04:32:12;;;;;;;7.22;2.90;;;17.00;99.90;;;;;;5046108;28;20875;-69
2023/07/01 04:34:37;;;;;;;8.27;2.73;;;16.90;99.90;;;;;;5047250;28;20409;-69
2023/07/01 04:37:03;;;;;;;8.43;2.87;;;16.90;99.90;;;;;;5045953;28;20409;-69
2023/07/01 04:39:29;;;;;;;5.53;2.63;;;16.90;99.90;;;;;;5051285;28;20415;-69
2023/07/01 04:41:55;;;;;;;5.82;2.50;;;16.90;99.90;;;;;;5049221;28;20417;-69
2023/07/01 04:44:23;;;;;;;7.00;2.60;;;17.00;99.90;;;;;;5047521;28;20425;-69
2023/07/01 04:46:50;;;;;;;5.75;2.65;;;16.90;99.90;;;;;;5034922;28;20408;-69
2023/07/01 04:49:16;;;;;;;5.47;2.70;;;17.00;99.90;;;;;;5050617;28;20404;-69
2023/07/01 04:51:41;;;;;;;7.23;2.60;;;17.00;99.90;;;;;;5066674;28;20410;-69
2023/07/01 04:54:07;;;;;;;6.82;2.63;;;17.00;99.90;;;;;;5068911;28;20430;-69
2023/07/01 04:56:33;;;;;;;7.25;3.08;;;16.90;99.90;;;;;;5068435;28;20431;-69
2023/07/01 04:59:00;;;;;;;8.93;2.63;;;17.00;99.90;;;;;;5050181;28;20403;-69
2023/07/01 05:01:26;;;;;;;7.13;2.80;;;17.00;99.90;;;;;;5050351;28;20450;-69
2023/07/01 05:03:52;;;;;;;8.23;2.60;;;17.00;99.90;;;;;;5047288;28;20402;-69
2023/07/01 05:06:18;;;;;;;4.72;2.42;;;17.00;99.90;;;;;;5053389;28;20409;-69
2023/07/01 05:08:44;;;;;;;4.70;2.50;;;17.00;1.00;;;;;;5046832;28;20405;-69
2023/07/01 05:11:09;;;;;;;4.63;2.70;;;17.00;99.90;;;;;;5045450;28;21016;-69
2023/07/01 05:13:35;;;;;;;9.18;3.10;;;17.00;1.00;;;;;;5047289;28;20414;-69
2023/07/01 05:16:01;;;;;;;6.03;3.00;;;17.00;1.00;;;;;;5052063;28;20433;-69
2023/07/01 05:18:26;;;;;;;5.40;2.70;;;17.00;53.30;;;;;;5049315;28;20400;-69
2023/07/01 05:20:52;;;;;;;5.10;2.50;;;17.00;1.00;;;;;;5067500;28;20404;-69
2023/07/01 05:23:17;;;;;;;7.78;3.10;;;17.10;1.00;;;;;;5040275;28;20417;-69
2023/07/01 05:25:43;;;;;;;5.27;2.97;;;17.10;54.00;;;;;;5044132;28;20405;-69
2023/07/01 05:28:09;;;;;;;6.30;3.13;;;17.10;1.00;;;;;;5068236;28;20755;-69
2023/07/01 05:30:35;;;;;;;7.10;3.00;;;17.10;29.20;;;;;;5065757;28;20447;-69
2023/07/01 05:33:00;;;;;;;6.22;3.13;;;17.10;57.90;;;;;;5019220;28;20404;-69
2023/07/01 05:35:26;;;;;;;4.77;2.80;;;17.10;37.30;;;;;;5062694;28;20423;-69
2023/07/01 05:37:52;;;;;;;6.72;3.20;;;17.10;56.00;;;;;;5068392;28;20396;-69
2023/07/01 05:40:18;;;;;;;5.05;2.80;;;17.10;99.90;;;;;;5049595;28;20411;-69
2023/07/01 05:42:45;;;;;;;5.38;3.40;;;17.10;99.90;;;;;;5045393;28;20466;-69
2023/07/01 05:45:11;;;;;;;6.32;3.10;;;17.10;99.90;;;;;;5042365;28;20466;-69
2023/07/01 05:47:37;;;;;;;6.78;3.45;;;17.10;99.90;;;;;;5046288;28;20471;-69
2023/07/01 05:50:03;;;;;;;7.82;3.42;;;17.20;99.90;;;;;;5045940;28;20462;-69
2023/07/01 05:52:29;;;;;;;6.57;3.13;;;17.20;99.90;;;;;;5050130;28;20406;-69
2023/07/01 05:54:55;;;;;;;5.43;3.13;;;17.20;99.90;;;;;;5067733;28;20454;-69
2023/07/01 05:57:21;;;;;;;6.80;3.27;;;17.20;99.90;;;;;;5067618;28;20758;-69
2023/07/01 05:59:46;;;;;;;7.40;3.22;;;17.20;99.90;;;;;;5048634;28;20832;-69
2023/07/01 06:02:12;;;;;;;5.63;3.13;;;17.20;99.90;;;;;;5032816;28;20411;-69
2023/07/01 06:04:37;;;;;;;6.95;3.15;;;17.20;99.90;;;;;;5067659;28;20404;-69
2023/07/01 06:07:03;;;;;;;8.50;2.90;;;17.20;99.90;;;;;;5068095;28;20743;-69
2023/07/01 06:09:29;;;;;;;6.75;3.15;;;17.30;99.90;;;;;;5049140;28;20765;-69
2023/07/01 06:11:54;;;;;;;7.03;3.73;;;17.30;99.90;;;;;;5041569;28;20471;-69
2023/07/01 06:14:20;;;;;;;7.03;3.53;;;17.30;99.90;;;;;;5044831;28;20413;-69
2023/07/01 06:16:46;;;;;;;6.93;3.63;;;17.40;99.90;;;;;;5046382;28;20433;-69
2023/07/01 06:19:11;;;;;;;7.30;3.73;;;17.40;99.90;;;;;;5045512;28;20422;-69
2023/07/01 06:21:37;;;;;;;6.97;3.47;;;17.40;99.90;;;;;;5045757;28;20437;-69
2023/07/01 06:24:03;;;;;;;6.03;3.67;;;17.40;99.90;;;;;;5043626;28;20419;-69
2023/07/01 06:26:29;;;;;;;6.87;3.50;;;17.40;99.90;;;;;;5034964;28;20409;-69
2023/07/01 06:28:55;;;;;;;6.72;3.70;;;17.40;99.90;;;;;;5044143;28;20422;-69
2023/07/01 06:31:20;;;;;;;8.07;3.53;;;17.40;99.90;;;;;;5045839;28;20764;-69
2023/07/01 06:33:46;;;;;;;7.70;3.87;;;17.50;99.90;;;;;;5041633;28;20405;-69
2023/07/01 06:36:17;;;;;;;8.10;3.78;;;17.50;99.90;;;;;;5067573;28;20456;-69
2023/07/01 06:38:43;;;;;;;5.88;3.90;;;17.50;99.90;;;;;;5036968;28;20466;-69
2023/07/01 06:41:09;;;;;;;7.68;3.95;;;17.50;99.90;;;;;;5046204;28;20409;-69
2023/07/01 06:43:41;;;;;;;14.53;4.43;;;17.50;99.90;;;;;;5028329;28;20408;-69
2023/07/01 06:46:07;;;;;;;8.68;4.45;;;17.50;99.90;;;;;;5049861;28;20464;-69
2023/07/01 06:48:33;;;;;;;8.47;4.47;;;17.50;99.90;;;;;;5035404;28;20409;-69
2023/07/01 06:50:59;;;;;;;8.83;4.93;;;17.40;99.90;;;;;;5045794;28;20409;-69
2023/07/01 06:53:25;;;;;;;10.40;5.85;;;17.30;99.90;;;;;;5046190;28;20474;-69
2023/07/01 06:55:50;;;;;;;9.65;6.10;;;17.30;99.90;;;;;;5067628;28;20515;-69
2023/07/01 06:58:16;;;;;;;10.53;6.33;;;17.20;1.00;;;;;;5036146;28;20408;-69
2023/07/01 07:00:42;;;;;;;8.57;6.13;;;17.10;1.00;;;;;;5049487;28;20474;-69
2023/07/01 07:03:08;;;;;;;11.70;6.38;;;17.20;1.00;;;;;;5048718;28;20419;-69
2023/07/01 07:05:34;;;;;;;12.60;6.72;;;17.10;1.00;;;;;;5050088;28;20412;-69
2023/07/01 07:08:00;;;;;;;10.37;6.00;;;17.20;1.00;;;;;;5039015;28;20404;-69
2023/07/01 07:10:25;;;;;;;9.40;6.22;;;17.20;1.00;;;;;;5052723;28;20412;-69
2023/07/01 07:12:51;;;;;;;9.53;5.97;;;17.20;1.00;;;;;;5048009;28;20422;-69
2023/07/01 07:15:17;;;;;;;8.65;5.68;;;17.20;1.00;;;;;;5050359;28;20591;-69
2023/07/01 07:17:42;;;;;;;10.00;5.97;;;17.20;1.00;;;;;;5048252;28;20418;-69
2023/07/01 07:20:08;;;;;;;8.27;5.60;;;17.20;1.00;;;;;;5048371;28;20434;-70
2023/07/01 07:22:34;;;;;;;7.43;5.85;;;17.20;1.00;;;;;;5026992;28;20452;-69
2023/07/01 07:25:00;;;;;;;10.10;5.97;;;17.30;1.00;;;;;;5035628;28;20427;-71
2023/07/01 07:27:25;;;;;;;8.43;6.03;;;17.30;1.00;;;;;;5046238;28;21116;-70
2023/07/01 07:29:51;;;;;;;8.10;5.50;;;17.20;1.00;;;;;;5047284;28;20401;-69
2023/07/01 07:32:17;;;;;;;8.60;5.63;;;17.20;1.00;;;;;;5046255;28;20415;-71
2023/07/01 07:34:42;;;;;;;14.27;5.40;;;17.20;1.00;;;;;;5047271;28;20779;-69
2023/07/01 07:37:08;;;;;;;6.75;5.53;;;17.20;1.00;;;;;;5045603;28;20452;-69
2023/07/01 07:39:34;;;;;;;8.23;5.30;;;17.20;1.00;;;;;;5041982;28;20410;-69
2023/07/01 07:42:00;;;;;;;7.00;5.35;;;17.20;1.00;;;;;;5043790;28;20421;-69
2023/07/01 07:44:25;;;;;;;7.10;5.28;;;17.20;1.00;;;;;;5046794;28;20905;-69
2023/07/01 07:46:51;;;;;;;7.60;5.50;;;17.20;1.00;;;;;;5044278;28;20500;-69
2023/07/01 07:49:17;;;;;;;8.60;5.57;;;17.30;1.00;;;;;;5046379;28;20412;-69
2023/07/01 07:51:43;;;;;;;6.40;5.30;;;17.30;1.00;;;;;;5043716;28;20406;-69
2023/07/01 07:54:08;;;;;;;7.43;5.50;;;17.30;1.00;;;;;;5044696;28;20419;-69
2023/07/01 07:56:34;;;;;;;8.32;5.50;;;17.40;1.00;;;;;;5046325;28;20443;-67
2023/07/01 07:59:00;;;;;;;7.93;5.20;;;17.50;1.00;;;;;;5045542;28;20511;-67
2023/07/01 08:01:25;;;;;;;6.37;4.97;;;17.50;1.00;;;;;;5045545;28;20482;-68
2023/07/01 08:03:51;;;;;;;7.03;5.20;;;17.50;1.00;;;;;;5039112;28;20426;-68
2023/07/01 08:06:17;;;;;;;6.83;4.70;;;17.50;1.00;;;;;;5044342;28;20416;-68
2023/07/01 08:08:43;;;;;;;6.13;4.63;;;17.60;1.00;;;;;;5045581;28;20415;-68
2023/07/01 08:11:08;;;;;;;6.50;4.82;;;17.60;1.00;;;;;;5051432;28;20459;-68
2023/07/01 08:13:34;;;;;;;5.80;4.63;;;17.60;1.00;;;;;;5043625;28;20522;-68
2023/07/01 08:15:59;;;;;;;6.47;5.17;;;17.60;1.00;;;;;;5037936;28;20982;-68
2023/07/01 08:18:25;;;;;;;6.18;4.97;;;17.70;1.00;;;;;;5048661;28;20457;-68
2023/07/01 08:20:51;;;;;;;5.53;4.37;;;17.70;1.00;;;;;;5049293;28;20409;-68
2023/07/01 08:23:16;;;;;;;7.07;4.80;;;17.90;1.00;;;;;;5057617;28;20460;-68
2023/07/01 08:25:42;;;;;;;6.30;4.80;;;17.90;1.00;;;;;;5035407;28;20445;-69
2023/07/01 08:28:08;;;;;;;5.33;4.53;;;18.00;1.00;;;;;;5034841;28;20463;-69
2023/07/01 08:30:34;;;;;;;6.50;4.07;;;18.10;1.00;;;;;;5045881;28;20412;-69
2023/07/01 08:33:00;;;;;;;4.35;3.90;;;18.10;1.00;;;;;;5044503;28;21886;-68
2023/07/01 08:35:26;;;;;;;5.00;3.72;;;18.10;1.00;;;;;;5064132;28;20428;-69
2023/07/01 08:37:52;;;;;;;5.00;3.70;;;18.10;1.00;;;;;;5059674;28;20433;-69
2023/07/01 08:40:18;;;;;;;5.40;3.70;;;18.10;1.00;;;;;;5061962;28;20469;-68
2023/07/01 08:42:48;;;;;;;4.25;3.30;;;18.10;1.00;;;;;;5047565;28;20405;-68
2023/07/01 08:45:14;;;;;;;4.57;3.95;;;18.10;1.00;;;;;;5046761;28;20494;-69
2023/07/01 08:47:41;;;;;;;4.90;3.92;;;18.20;1.00;;;;;;5059631;28;20398;-68
2023/07/01 08:50:08;;;;;;;5.22;4.20;;;18.20;1.00;;;;;;5062650;28;20536;-69
2023/07/01 08:52:44;;;;;;;5.53;4.63;;;18.20;1.00;;;;;;5047322;28;20417;-69
2023/07/01 08:55:11;;;;;;;5.50;4.37;;;18.20;1.00;;;;;;5054935;28;20970;-69
2023/07/01 08:57:40;;;;;;;5.47;4.70;;;18.20;1.00;;;;;;5055450;28;20410;-69
2023/07/01 09:00:09;;;;;;;6.10;4.80;;;18.20;1.00;;;;;;5048822;28;20931;-68
2023/07/01 09:02:36;;;;;;;5.90;4.83;;;18.20;1.00;;;;;;5038751;28;20410;-68
2023/07/01 09:05:03;;;;;;;5.77;5.17;;;18.20;1.00;;;;;;5048892;28;20451;-69
2023/07/01 09:07:31;;;;;;;5.93;5.30;;;18.30;1.00;;;;;;5049075;28;20422;-69
2023/07/01 09:09:57;;;;;;;6.13;5.10;;;18.30;1.00;;;;;;5023268;28;20400;-69
2023/07/01 09:12:32;;;;;;;6.20;4.97;;;18.40;1.00;;;;;;5048190;28;20416;-68
2023/07/01 09:15:02;;;;;;;6.05;5.00;;;18.40;1.00;;;;;;5046147;28;20425;-68
2023/07/01 09:17:33;;;;;;;5.78;5.18;;;18.40;1.00;;;;;;5044425;28;20498;-68
2023/07/01 09:20:05;;;;;;;5.10;4.60;;;18.40;1.00;;;;;;5022940;28;20420;-68
2023/07/01 09:22:32;;;;;;;4.97;4.47;;;18.40;1.00;;;;;;5043645;28;20420;-68
2023/07/01 09:24:58;;;;;;;5.57;5.00;;;18.50;1.00;;;;;;5035445;28;20424;-69
2023/07/01 09:27:24;;;;;;;5.55;4.72;;;18.50;1.00;;;;;;5045778;28;20407;-68
2023/07/01 09:29:52;;;;;;;5.55;4.78;;;18.50;1.00;;;;;;5046545;28;20775;-68
2023/07/01 09:32:28;;;;;;;5.60;4.53;;;18.50;1.00;;;;;;5044762;28;20419;-69
2023/07/01 09:34:57;;;;;;;5.15;4.40;;;18.50;1.00;;;;;;5048893;28;21081;-69
2023/07/01 09:37:23;;;;;;;5.25;4.25;;;18.50;1.00;;;;;;5045485;28;20419;-68
2023/07/01 09:39:49;;;;;;;5.20;4.22;;;18.50;1.00;;;;;;5058756;28;20396;-68
2023/07/01 09:42:19;;;;;;;4.70;3.95;;;18.60;1.00;;;;;;5046126;28;20800;-69
2023/07/01 09:45:03;;;;;;;5.23;4.30;;;18.60;1.00;;;;;;5038208;28;20451;-69
2023/07/01 09:47:29;;;;;;;5.13;4.50;;;18.60;1.00;;;;;;5041599;28;20417;-68
2023/07/01 09:49:55;;;;;;;5.68;4.25;;;18.70;1.00;;;;;;5044196;28;20425;-69
2023/07/01 09:52:34;;;;;;;4.30;3.90;;;18.60;1.00;;;;;;5045444;28;20440;-69
2023/07/01 09:55:02;;;;;;;4.20;3.80;;;18.70;1.00;;;;;;5042039;28;20507;-68
2023/07/01 09:57:29;;;;;;;5.07;4.15;;;18.70;1.00;;;;;;5044662;28;20445;-69
2023/07/01 09:59:55;;;;;;;4.60;4.20;;;18.70;1.00;;;;;;5041362;28;20446;-69
2023/07/01 10:02:22;;;;;;;4.90;4.35;;;18.70;1.00;;;;;;5046184;28;20818;-69
2023/07/01 10:04:48;;;;;;;5.15;4.53;;;18.70;1.70;;;;;;5057942;28;20808;-69
2023/07/01 10:07:13;;;;;;;5.32;4.50;;;18.80;1.00;;;;;;5043189;28;20413;-69
2023/07/01 10:09:46;;;;;;;5.13;4.63;;;18.80;7.00;;;;;;5043239;28;20423;-69
2023/07/01 10:12:14;;;;;;;5.60;5.00;;;18.80;5.90;;;;;;5048697;28;21243;-68
2023/07/01 10:14:42;;;;;;;5.25;4.70;;;18.90;5.60;;;;;;5061447;28;20424;-69
2023/07/01 10:17:09;;;;;;;6.38;5.03;;;18.90;8.90;;;;;;5043583;28;20413;-69
2023/07/01 10:19:35;;;;;;;6.07;5.15;;;18.90;14.50;;;;;;5028410;28;20416;-69
2023/07/01 10:22:24;;;;;;;5.50;4.80;;;19.00;11.20;;;;;;5045766;28;20493;-69
2023/07/01 10:25:03;;;;;;;5.60;4.70;;;19.10;8.70;;;;;;5039247;28;20413;-69
2023/07/01 10:27:44;;;;;;;5.07;4.20;;;19.10;10.30;;;;;;5049402;28;20435;-69
2023/07/01 10:30:12;;;;;;;5.00;4.50;;;19.10;10.10;;;;;;5047865;28;20413;-69
2023/07/01 10:32:38;;;;;;;5.90;4.47;;;19.10;11.80;;;;;;5031283;28;20428;-69
2023/07/01 10:35:03;;;;;;;5.63;4.47;;;19.20;12.10;;;;;;5055266;28;20483;-70
2023/07/01 10:37:31;;;;;;;4.80;4.30;;;19.20;8.10;;;;;;5048422;28;20504;-69
2023/07/01 10:39:58;;;;;;;6.43;4.23;;;19.20;11.40;;;;;;5039860;28;20439;-69
2023/07/01 10:42:31;;;;;;;7.87;4.53;;;19.20;10.10;;;;;;5047631;28;20409;-70
2023/07/01 10:45:12;;;;;;;11.70;5.03;;;19.20;10.40;;;;;;5044627;28;20488;-70
2023/07/01 10:47:44;;;;;;;4.93;3.40;;;19.00;9.40;;;;;;5045461;28;20777;-69
2023/07/01 10:50:14;;;;;;;6.07;3.90;;;18.90;10.60;;;;;;5047259;28;20486;-69
2023/07/01 10:52:58;;;;;;;5.60;3.13;;;18.90;15.40;;;;;;5052208;28;20465;-69
2023/07/01 10:55:44;;;;;;;4.43;3.20;;;18.90;21.10;;;;;;5058483;28;20436;-69
2023/07/01 10:58:26;;;;;;;4.25;2.80;;;19.00;31.10;;;;;;5061094;28;21131;-69
2023/07/01 11:00:57;;;;;;;7.13;2.72;;;19.10;39.70;;;;;;5049440;28;20953;-69
2023/07/01 11:06:01;;;;;;;4.30;2.92;;;19.50;44.80;;;;;;5045844;28;20493;-69
2023/07/01 11:08:28;;;;;;;4.80;3.03;;;19.50;44.20;;;;;;5045397;28;20410;-69
2023/07/01 11:10:54;;;;;;;5.33;3.20;;;19.70;43.30;;;;;;5040196;28;20416;-72
2023/07/01 11:13:20;;;;;;;4.78;3.33;;;19.70;38.70;;;;;;5048300;28;20400;-70
2023/07/01 11:16:07;;;;;;;4.85;3.42;;;19.70;34.30;;;;;;5037375;28;20516;-70
2023/07/01 11:18:39;;;;;;;6.68;3.50;;;19.60;30.40;;;;;;5043002;28;20873;-69
2023/07/01 11:21:05;;;;;;;5.75;3.80;;;19.50;27.10;;;;;;5043507;28;21199;-69
2023/07/01 11:23:31;;;;;;;5.20;4.10;;;19.40;27.70;;;;;;5047020;28;20415;-69
2023/07/01 11:25:56;;;;;;;5.67;4.53;;;19.40;28.00;;;;;;5055775;28;20403;-69
2023/07/01 11:28:35;;;;;;;5.30;3.88;;;19.30;27.90;;;;;;5052973;28;20400;-69
2023/07/01 11:31:18;;;;;;;5.13;3.45;;;19.30;29.40;;;;;;5036206;28;20416;-69
2023/07/01 11:33:52;;;;;;;5.43;4.20;;;19.30;29.60;;;;;;5037604;28;20844;-69
2023/07/01 11:36:20;;;;;;;6.60;4.65;;;19.30;32.00;;;;;;5038853;28;20534;-69
2023/07/01 11:38:48;;;;;;;5.38;4.40;;;19.40;34.80;;;;;;5055414;28;20408;-69
2023/07/01 11:41:16;;;;;;;6.88;4.80;;;19.40;33.00;;;;;;5028270;28;20444;-69
2023/07/01 11:43:42;;;;;;;5.88;4.10;;;19.50;32.70;;;;;;5035439;28;21010;-69
2023/07/01 11:46:09;;;;;;;6.47;4.40;;;19.50;34.90;;;;;;5040980;28;20467;-70
2023/07/01 11:48:35;;;;;;;6.65;4.53;;;19.50;37.20;;;;;;5039483;28;20410;-69
2023/07/01 11:51:00;;;;;;;5.37;4.50;;;19.70;39.30;;;;;;5041729;28;20428;-69
2023/07/01 11:53:26;;;;;;;6.28;4.32;;;19.90;40.20;;;;;;5048269;28;20578;-70
2023/07/01 11:55:55;;;;;;;5.82;4.53;;;20.00;35.70;;;;;;5038097;28;20435;-69
2023/07/01 11:58:31;;;;;;;6.50;4.47;;;20.10;36.90;;;;;;5065594;28;20407;-69
2023/07/01 12:00:57;;;;;;;6.45;4.75;;;20.30;35.50;;;;;;5069963;28;20407;-69
2023/07/01 12:03:23;;;;;;;5.35;4.57;;;20.30;28.90;;;;;;5051617;28;20404;-69
2023/07/01 12:05:49;;;;;;;5.77;4.80;;;20.20;19.90;;;;;;5047883;28;20405;-69
2023/07/01 12:08:15;;;;;;;7.17;5.03;;;20.10;16.10;;;;;;5066022;28;20407;-69
2023/07/01 12:10:41;;;;;;;7.40;5.70;;;20.00;14.20;;;;;;5050737;28;21252;-69
2023/07/01 12:13:07;;;;;;;7.10;5.63;;;19.90;15.70;;;;;;5030228;28;20860;-69
2023/07/01 12:15:50;;;;;;;8.02;5.95;;;19.90;11.30;;;;;;5044361;28;20929;-69
2023/07/01 12:18:29;;;;;;;7.95;6.40;;;19.80;7.30;;;;;;5047277;28;20527;-69
2023/07/01 12:20:56;;;;;;;9.07;6.65;;;19.80;9.60;;;;;;5046755;28;20421;-69
2023/07/01 12:23:22;;;;;;;7.35;6.45;;;19.90;17.00;;;;;;5048399;28;20416;-70
2023/07/01 12:25:48;;;;;;;8.70;6.32;;;20.10;21.40;;;;;;5045557;28;20413;-70
2023/07/01 12:28:14;;;;;;;7.97;6.72;;;20.30;15.40;;;;;;5017597;28;20419;-70
2023/07/01 12:30:40;;;;;;;8.67;6.53;;;20.30;7.80;;;;;;5042708;28;20418;-70
2023/07/01 12:33:06;;;;;;;9.93;7.35;;;20.30;1.00;;;;;;5043168;28;20502;-69
2023/07/01 12:35:31;;;;;;;7.72;6.40;;;20.30;1.00;;;;;;5026104;28;20429;-69
2023/07/01 12:37:58;;;;;;;8.10;5.88;;;20.20;1.00;;;;;;5042268;28;20812;-69
2023/07/01 12:40:27;;;;;;;8.25;6.13;;;20.20;1.00;;;;;;5043718;28;20413;-69
2023/07/01 12:42:53;;;;;;;7.82;5.85;;;20.10;1.00;;;;;;5038845;28;20412;-69
2023/07/01 12:45:19;;;;;;;6.70;5.57;;;20.20;1.00;;;;;;5046643;28;20494;-69
2023/07/01 12:47:45;;;;;;;7.23;5.17;;;20.40;1.00;;;;;;5043004;28;20473;-70
2023/07/01 12:50:11;;;;;;;8.25;5.90;;;20.60;1.00;;;;;;5035660;28;20405;-70
2023/07/01 12:52:37;;;;;;;7.25;5.53;;;20.60;1.00;;;;;;5044133;28;20419;-70
2023/07/01 12:55:09;;;;;;;7.05;5.38;;;20.70;1.00;;;;;;5045069;28;20413;-70